หน้าหลัก
METAR-TAF:

METAR-TAF

ท่าอากาศยาน :

Culdrose, อังกฤษ

ละติจูด: 50-05N, ลองจิจูด: 005-15W, ความสูง: 78 ม.

การสังเกตสภาพอากาศปัจจุบัน

รายงานได้ทำขึ้นเมื่อ 35 นาทีที่แล้ว ณ เวลา 00:50 UTC
ลม 15 นอตจากเหนือ
อุณหภูมิ 12°C
ความชื้น 88%
ความกดอากาศ 1018 hPa
ทัศนวิสัย 10 กม. หรือมากกว่า

METAR: EGDR 190050Z AUTO 01015KT 9999 NCD 12/10 Q1018

เวลา: 02:25 (01:25 UTC)

การพยากรณ์

รายงานได้ทำขึ้นเมื่อ 9 ชั่วโมงและ 2 นาทีที่แล้ว ณ เวลา 16:23 UTC
การพยากรณ์มีผลตั้งแต่วันที่ 18 ณ เวลา 18 UTC จนถึงวันที่ 19 ณ เวลา 03 UTC
ลม 19 นอตจากเหนือโดยมีลมกระโชกได้ถึง29 นอต
ทัศนวิสัย 10 กม. หรือมากกว่า
มีเมฆกระจายเป็นบางส่วนที่ความสูง 2500 ฟุต
ความน่าจะเป็น 40% :
ชั่วคราว
ตั้งแต่วันที่ 18 ณ เวลา 18 UTC จนถึงวันที่ 19 ณ เวลา 03 UTC
มีเมฆกระจายเป็นบางส่วนที่ความสูง 2200 ฟุต
ความน่าจะเป็น 30% :
ชั่วคราว
ตั้งแต่วันที่ 19 ณ เวลา 01 UTC จนถึงวันที่ 19 ณ เวลา 03 UTC
มีเมฆกระจายเป็นบางส่วนที่ความสูง 800 ฟุต

TAF: EGDR 181623Z 1818/1903 36019G29KT 9999 SCT025 PROB40 TEMPO 1818/1903 SCT022 PROB30 TEMPO 1901/1903 SCT008

สังเกตการณ์สภาพอากาศและพยากรณ์อากาศของสนามบินมากกว่า 4000 แห่ง (รายงาน METAR และ TAF).

สถานีที่ดูได้จะแสดงไว้ด้วยจุดสีเหลืองและสีแดงบนแผนที่.

เลื่อนเมาส์ไปเหนือจุดเพื่อดูชื่อสถานี.

แล้วคลิกเพื่อดูสังเกตการณ์และการพยากรณ์สภาพอากาศ.

ในการเปลี่ยนแผนที่: คลิกที่ปุ่มสีเขียวที่มีกากบาทสีดำเพื่อซูมเข้า; ที่ปุ่มสีเขียวที่มีขีดเพื่อซูมออก; หรือที่ลูกศรสีเขียวเพื่อไปยังแผนที่ที่อยู่ติดกัน.


METAR-TAF: